Terminal Aerodrome Forecast
Issued by NWS Sioux Falls, SD

Home | Current Version | Previous Version | Text Only | Print | Product List | Glossary On
Versions: 1 2 3 4 5 6 7 8 9 10 11 12 13 14 15 16 17 18 19 20 21 22 23 24 25 26 27
000
FTUS43 KFSD 191500 AAA
TAFFSD
TAF AMD
KFSD 191558Z 1916/2012 18010KT P6SM BKN015
     FM191700 18009KT P6SM BKN025
     FM191800 18009KT P6SM SCT025
     FM192200 18012KT P6SM SCT035 BKN120
     FM200400 17012KT P6SM SCT150
     FM201000 17012KT P6SM SCT090=

USA.gov is the U.S. government's official web portal to all federal, state and local government web resources and services.